Time;durP1;ratioP1;P1;durP2;ratioP2;P2;SDS_P1;SDS_P2;PMS_P1;PMS_P2;Temp;Humidity;BMP_temperature;BMP_pressure;BME280_temperature;BME280_humidity;BME280_pressure;Samples;Min_cycle;Max_cycle;Signal;HPM_P1;HPM_P2
2022/04/02 00:00:11;;;;;;;1.07;1.00;;;3.70;90.50;;;;;;5031665;28;20216;-83
2022/04/02 00:02:38;;;;;;;1.37;1.27;;;3.80;90.60;;;;;;5032284;28;20209;-83
2022/04/02 00:05:05;;;;;;;1.50;1.30;;;3.80;90.60;;;;;;5032206;28;20235;-82
2022/04/02 00:07:32;;;;;;;1.30;1.20;;;3.70;90.60;;;;;;5032246;28;20260;-83
2022/04/02 00:09:59;;;;;;;1.80;1.20;;;3.60;90.80;;;;;;5032509;28;20618;-83
2022/04/02 00:12:26;;;;;;;2.57;1.30;;;3.50;91.00;;;;;;5031776;28;20806;-84
2022/04/02 00:14:53;;;;;;;1.40;1.30;;;3.50;91.20;;;;;;5031728;28;20209;-84
2022/04/02 00:17:20;;;;;;;1.23;1.23;;;3.60;91.20;;;;;;5032447;28;20233;-84
2022/04/02 00:19:47;;;;;;;1.27;1.17;;;3.60;91.20;;;;;;5033173;28;20719;-83
2022/04/02 00:22:26;;;;;;;1.40;1.30;;;3.70;91.20;;;;;;5031737;28;20213;-82
2022/04/02 00:24:52;;;;;;;1.23;1.13;;;3.70;91.20;;;;;;5011478;28;20197;-83
2022/04/02 00:27:19;;;;;;;1.40;1.30;;;3.70;91.10;;;;;;5011998;28;20233;-83
2022/04/02 00:29:46;;;;;;;1.27;0.93;;;3.70;91.10;;;;;;5012674;28;20214;-86
2022/04/02 00:35:37;;;;;;;1.73;1.50;;;3.50;91.50;;;;;;5020666;28;20216;-85
2022/04/02 00:38:04;;;;;;;3.43;1.30;;;3.70;91.60;;;;;;5030938;28;20552;-74
2022/04/02 00:40:30;;;;;;;1.90;1.10;;;3.70;91.50;;;;;;5031006;28;20213;-76
2022/04/02 00:42:57;;;;;;;1.17;1.00;;;3.60;91.50;;;;;;5031146;28;20292;-76
2022/04/02 00:45:23;;;;;;;1.30;1.20;;;3.70;91.70;;;;;;5030778;28;20212;-75
2022/04/02 00:47:50;;;;;;;1.67;1.30;;;3.50;91.80;;;;;;5030599;28;20220;-74
2022/04/02 00:50:17;;;;;;;2.00;1.20;;;3.50;92.00;;;;;;5043978;28;20679;-74
2022/04/02 00:52:45;;;;;;;1.20;1.10;;;3.60;92.00;;;;;;5039398;28;20249;-74
2022/04/02 00:55:12;;;;;;;2.23;1.20;;;3.60;92.10;;;;;;5025823;28;20205;-82
2022/04/02 00:57:39;;;;;;;1.70;1.60;;;3.60;92.10;;;;;;5031395;28;20232;-82
2022/04/02 01:00:07;;;;;;;2.70;1.20;;;3.60;92.20;;;;;;5030911;28;20355;-79
2022/04/02 01:02:34;;;;;;;1.33;1.27;;;3.70;92.30;;;;;;5030502;28;20628;-80
2022/04/02 01:05:01;;;;;;;2.63;1.40;;;3.60;92.30;;;;;;5050210;28;20215;-80
2022/04/02 01:07:28;;;;;;;2.03;1.43;;;3.70;92.30;;;;;;5050988;28;20314;-80
2022/04/02 01:09:56;;;;;;;1.30;1.20;;;3.70;92.40;;;;;;5041761;28;20205;-80
2022/04/02 01:12:25;;;;;;;1.20;1.10;;;3.60;92.60;;;;;;5030387;28;20739;-80
2022/04/02 01:14:52;;;;;;;1.13;0.83;;;3.50;92.80;;;;;;5029758;28;20208;-80
2022/04/02 01:17:20;;;;;;;1.67;1.30;;;3.60;92.80;;;;;;5030396;28;20714;-80
2022/04/02 01:19:47;;;;;;;1.53;1.20;;;3.70;92.90;;;;;;5030238;28;20286;-80
2022/04/02 01:22:15;;;;;;;1.67;1.40;;;3.60;92.90;;;;;;5030744;28;20209;-81
2022/04/02 01:24:42;;;;;;;1.87;1.40;;;3.60;93.00;;;;;;5010584;28;20205;-81
2022/04/02 01:27:09;;;;;;;1.70;1.03;;;3.60;93.20;;;;;;5010515;28;20206;-80
2022/04/02 01:29:35;;;;;;;0.90;0.90;;;3.60;93.10;;;;;;5021964;28;20233;-81
2022/04/02 01:32:02;;;;;;;1.53;1.43;;;3.60;93.20;;;;;;5030505;28;20201;-81
2022/04/02 01:34:31;;;;;;;3.37;1.40;;;3.60;93.20;;;;;;5030326;28;20216;-80
2022/04/02 01:36:57;;;;;;;1.93;1.20;;;3.60;93.30;;;;;;5029951;28;20236;-81
2022/04/02 01:39:25;;;;;;;1.20;1.20;;;3.60;93.30;;;;;;5030199;28;20205;-81
2022/04/02 01:41:52;;;;;;;2.70;1.60;;;3.60;93.40;;;;;;5029888;28;20228;-80
2022/04/02 01:44:19;;;;;;;1.67;0.90;;;3.60;93.30;;;;;;5029924;28;20248;-81
2022/04/02 01:46:45;;;;;;;1.40;1.30;;;3.60;93.40;;;;;;5035380;28;20227;-81
2022/04/02 01:49:12;;;;;;;1.70;1.30;;;3.60;93.40;;;;;;5050271;28;20713;-81
2022/04/02 01:51:39;;;;;;;1.27;1.20;;;3.60;93.50;;;;;;5042412;28;20251;-81
2022/04/02 01:54:05;;;;;;;1.10;1.10;;;3.60;93.60;;;;;;5024385;28;20240;-81
2022/04/02 01:56:34;;;;;;;1.43;1.33;;;3.60;93.60;;;;;;5029594;28;20229;-81
2022/04/02 01:59:01;;;;;;;2.13;1.30;;;3.60;93.70;;;;;;5029485;28;20227;-81
2022/04/02 02:01:27;;;;;;;1.13;1.10;;;3.60;93.70;;;;;;5029910;28;20626;-80
2022/04/02 02:03:54;;;;;;;1.23;1.10;;;3.60;93.80;;;;;;5029360;28;20754;-81
2022/04/02 02:06:20;;;;;;;1.30;0.87;;;3.60;93.80;;;;;;5028864;28;20264;-80
2022/04/02 02:08:47;;;;;;;1.37;1.20;;;3.60;93.80;;;;;;5029782;28;20215;-80
2022/04/02 02:11:14;;;;;;;1.10;1.10;;;3.50;93.90;;;;;;5029589;28;20789;-81
2022/04/02 02:13:42;;;;;;;1.17;1.03;;;3.50;94.30;;;;;;5029406;28;20320;-80
2022/04/02 02:16:09;;;;;;;1.10;1.10;;;3.40;94.20;;;;;;5028897;28;20698;-81
2022/04/02 02:18:36;;;;;;;2.13;1.23;;;3.50;94.30;;;;;;5044739;28;20212;-80
2022/04/02 02:21:05;;;;;;;1.30;1.20;;;3.40;94.30;;;;;;5048896;28;20614;-81
2022/04/02 02:23:32;;;;;;;2.23;1.20;;;3.30;94.50;;;;;;5038614;28;20263;-80
2022/04/02 02:25:58;;;;;;;1.20;1.03;;;3.40;94.50;;;;;;5029233;28;20278;-80
2022/04/02 02:28:25;;;;;;;2.10;1.20;;;3.40;94.50;;;;;;5030811;28;20660;-89
2022/04/02 02:30:54;;;;;;;3.07;1.30;;;3.50;94.50;;;;;;5031716;28;20209;-88
2022/04/02 02:36:08;;;;;;;1.70;1.17;;;3.40;94.60;;;;;;5031072;28;20207;-87
2022/04/02 02:38:34;;;;;;;3.83;1.20;;;3.40;94.70;;;;;;5031505;28;20655;-89
2022/04/02 02:41:01;;;;;;;0.97;0.93;;;3.50;94.80;;;;;;5029354;28;20481;-82
2022/04/02 02:43:28;;;;;;;1.13;1.00;;;3.50;94.70;;;;;;5033657;28;20215;-83
2022/04/02 02:45:56;;;;;;;1.17;1.10;;;3.50;94.70;;;;;;5028894;28;20298;-83
2022/04/02 02:48:23;;;;;;;1.10;0.93;;;3.50;94.80;;;;;;5028460;28;20696;-82
2022/04/02 02:50:49;;;;;;;2.20;0.80;;;3.40;94.80;;;;;;5028792;28;20205;-82
2022/04/02 02:53:16;;;;;;;0.73;0.70;;;3.50;94.90;;;;;;5020799;28;20283;-83
2022/04/02 02:55:44;;;;;;;0.77;0.77;;;3.50;95.00;;;;;;5025188;28;20204;-83
2022/04/02 02:58:10;;;;;;;1.53;1.00;;;3.50;95.00;;;;;;5028962;28;20244;-80
2022/04/02 03:00:37;;;;;;;1.20;1.10;;;3.50;95.00;;;;;;5028683;28;20213;-80
2022/04/02 03:03:05;;;;;;;1.47;1.00;;;3.50;95.00;;;;;;5028351;28;20213;-80
2022/04/02 03:05:32;;;;;;;1.10;1.00;;;3.40;95.10;;;;;;5028654;28;20262;-80
2022/04/02 03:07:58;;;;;;;2.47;1.40;;;3.40;95.20;;;;;;5028320;28;20650;-80
2022/04/02 03:10:26;;;;;;;0.90;0.90;;;3.50;95.30;;;;;;5028566;28;20254;-81
2022/04/02 03:12:54;;;;;;;1.27;1.17;;;3.50;95.30;;;;;;5028470;28;20208;-81
2022/04/02 03:15:22;;;;;;;3.83;0.80;;;3.40;95.20;;;;;;5028041;28;20656;-80
2022/04/02 03:17:51;;;;;;;1.20;1.10;;;3.50;95.20;;;;;;5036573;28;20782;-80
2022/04/02 03:20:22;;;;;;;1.10;1.00;;;3.50;95.20;;;;;;5029269;28;20233;-80
2022/04/02 03:22:51;;;;;;;1.67;1.07;;;3.50;95.30;;;;;;5023522;28;20672;-81
2022/04/02 03:25:19;;;;;;;0.87;0.87;;;3.40;95.20;;;;;;5017116;28;20824;-78
2022/04/02 03:27:47;;;;;;;1.33;1.03;;;3.50;95.30;;;;;;5028173;28;20236;-81
2022/04/02 03:30:17;;;;;;;1.83;1.20;;;3.40;95.60;;;;;;5027775;28;20201;-81
2022/04/02 03:32:44;;;;;;;0.97;0.90;;;3.40;95.40;;;;;;5028361;28;20204;-82
2022/04/02 03:35:14;;;;;;;1.10;1.07;;;3.40;95.40;;;;;;5028643;28;20254;-82
2022/04/02 03:37:43;;;;;;;1.83;1.00;;;3.40;95.50;;;;;;5028417;28;20320;-89
2022/04/02 03:40:11;;;;;;;1.40;1.13;;;3.30;95.50;;;;;;5043660;28;20215;-89
2022/04/02 03:42:38;;;;;;;0.80;0.80;;;3.30;95.60;;;;;;5032974;28;20251;-88
2022/04/02 03:45:07;;;;;;;1.10;1.00;;;3.20;95.90;;;;;;5029720;28;20294;-85
2022/04/02 03:47:34;;;;;;;1.17;1.07;;;3.20;95.80;;;;;;5029707;28;20229;-85
2022/04/02 03:50:01;;;;;;;1.27;0.97;;;3.20;95.80;;;;;;5029870;28;20216;-88
2022/04/02 03:52:28;;;;;;;2.10;1.20;;;3.20;95.80;;;;;;5030402;28;20909;-84
2022/04/02 03:54:56;;;;;;;3.00;1.63;;;3.20;95.90;;;;;;5028938;28;20576;-84
2022/04/02 03:57:23;;;;;;;1.97;1.40;;;3.20;96.00;;;;;;5028581;28;20232;-84
2022/04/02 03:59:50;;;;;;;1.27;1.17;;;3.20;96.00;;;;;;5028448;28;20252;-84
2022/04/02 04:02:17;;;;;;;1.83;1.33;;;3.20;96.00;;;;;;5029343;28;20208;-86
2022/04/02 04:04:43;;;;;;;0.93;0.93;;;3.20;96.00;;;;;;5029720;28;20259;-85
2022/04/02 04:07:10;;;;;;;2.50;1.20;;;3.20;96.00;;;;;;5029711;28;20235;-85
2022/04/02 04:09:37;;;;;;;1.47;1.03;;;3.20;96.00;;;;;;5029797;28;20204;-85
2022/04/02 04:12:06;;;;;;;2.33;1.30;;;3.20;96.00;;;;;;5029086;28;20237;-83
2022/04/02 04:14:33;;;;;;;1.50;1.00;;;3.10;96.10;;;;;;5028108;28;20571;-83
2022/04/02 04:17:01;;;;;;;2.60;1.37;;;3.10;96.30;;;;;;5029614;28;20227;-83
2022/04/02 04:19:27;;;;;;;2.20;1.00;;;3.10;96.20;;;;;;5028508;28;20248;-83
2022/04/02 04:21:55;;;;;;;0.97;0.93;;;3.20;96.30;;;;;;5028416;28;20205;-84
2022/04/02 04:24:21;;;;;;;0.93;0.93;;;3.20;96.20;;;;;;5015372;28;20209;-83
2022/04/02 04:26:48;;;;;;;2.40;1.10;;;3.20;96.20;;;;;;5027885;28;20247;-84
2022/04/02 04:29:16;;;;;;;1.90;1.10;;;3.20;96.20;;;;;;5029086;28;20243;-86
2022/04/02 04:31:43;;;;;;;1.17;0.87;;;3.20;96.30;;;;;;5032876;28;20212;-84
2022/04/02 04:34:09;;;;;;;2.10;0.90;;;3.20;96.30;;;;;;5032753;28;20216;-85
2022/04/02 04:36:36;;;;;;;3.60;1.67;;;3.20;96.30;;;;;;5038042;28;20209;-84
2022/04/02 04:39:04;;;;;;;4.60;1.40;;;3.20;96.30;;;;;;5032392;28;20639;-85
2022/04/02 04:41:31;;;;;;;1.40;1.27;;;3.20;96.40;;;;;;5032369;28;20204;-85
2022/04/02 04:43:57;;;;;;;2.13;1.00;;;3.00;96.50;;;;;;5031867;28;20555;-84
2022/04/02 04:46:25;;;;;;;1.90;1.10;;;3.10;96.60;;;;;;5032051;28;20212;-82
2022/04/02 04:48:52;;;;;;;2.47;1.20;;;3.10;96.50;;;;;;5032279;28;20598;-80
2022/04/02 04:51:23;;;;;;;0.90;0.90;;;3.10;96.50;;;;;;5031100;28;20205;-80
2022/04/02 04:53:50;;;;;;;1.13;1.10;;;3.20;96.50;;;;;;5027612;28;20207;-81
2022/04/02 04:56:16;;;;;;;2.43;1.10;;;3.20;96.50;;;;;;5030442;28;20612;-82
2022/04/02 04:58:43;;;;;;;1.30;1.20;;;3.20;96.60;;;;;;5030696;28;20627;-82
2022/04/02 05:01:10;;;;;;;1.57;1.10;;;3.20;96.60;;;;;;5031699;28;20630;-85
2022/04/02 05:03:39;;;;;;;2.10;1.10;;;3.20;96.60;;;;;;5032387;28;20328;-84
2022/04/02 05:06:09;;;;;;;1.40;0.87;;;3.20;96.60;;;;;;5030754;28;20726;-84
2022/04/02 05:08:36;;;;;;;2.80;1.47;;;3.20;96.60;;;;;;5031215;28;20267;-84
2022/04/02 05:11:05;;;;;;;0.90;0.90;;;3.20;96.80;;;;;;5031763;28;20267;-84
2022/04/02 05:13:32;;;;;;;2.57;1.30;;;3.10;96.80;;;;;;5031573;28;20204;-83
2022/04/02 05:15:59;;;;;;;1.40;1.30;;;3.10;96.90;;;;;;5031128;28;20744;-84
2022/04/02 05:18:27;;;;;;;1.37;1.27;;;3.20;96.90;;;;;;5045392;28;20227;-83
2022/04/02 05:20:56;;;;;;;1.50;1.10;;;3.20;96.90;;;;;;5049907;28;20232;-79
2022/04/02 05:23:24;;;;;;;4.10;1.47;;;3.20;96.90;;;;;;5025962;28;20206;-80
2022/04/02 05:25:50;;;;;;;1.77;1.30;;;3.20;97.00;;;;;;5010476;28;20267;-80
2022/04/02 05:28:18;;;;;;;1.37;1.00;;;3.20;97.00;;;;;;5029233;28;20341;-82
2022/04/02 05:30:45;;;;;;;1.80;1.30;;;3.30;97.40;;;;;;5030393;28;20212;-82
2022/04/02 05:33:12;;;;;;;1.77;1.13;;;3.40;97.20;;;;;;5030047;28;20209;-81
2022/04/02 05:35:39;;;;;;;1.53;0.90;;;3.30;97.10;;;;;;5029978;28;20208;-80
2022/04/02 05:38:07;;;;;;;1.47;1.37;;;3.40;97.20;;;;;;5029632;28;20228;-81
2022/04/02 05:40:37;;;;;;;1.73;1.40;;;3.50;97.10;;;;;;5029998;28;20999;-81
2022/04/02 05:43:03;;;;;;;2.20;1.73;;;3.50;97.10;;;;;;5029928;28;20209;-81
2022/04/02 05:45:30;;;;;;;6.07;1.90;;;3.50;97.10;;;;;;5029595;28;20273;-81
2022/04/02 05:47:57;;;;;;;1.97;1.47;;;3.50;97.00;;;;;;5029695;28;20229;-80
2022/04/02 05:50:25;;;;;;;3.10;1.30;;;3.60;97.30;;;;;;5030071;28;20212;-80
2022/04/02 05:52:52;;;;;;;1.67;1.40;;;3.50;97.00;;;;;;5029307;28;20208;-80
2022/04/02 05:55:20;;;;;;;1.37;1.27;;;3.50;97.10;;;;;;5029670;28;20213;-80
2022/04/02 05:57:48;;;;;;;1.10;1.00;;;3.50;97.20;;;;;;5029551;28;20237;-83
2022/04/02 06:00:17;;;;;;;1.60;1.07;;;3.50;97.20;;;;;;5029833;28;20201;-82
2022/04/02 06:02:44;;;;;;;5.93;1.67;;;3.60;97.20;;;;;;5029566;28;20734;-83
2022/04/02 06:05:13;;;;;;;0.90;0.90;;;3.60;97.30;;;;;;5029967;28;20201;-83
2022/04/02 06:07:40;;;;;;;0.97;0.90;;;3.70;97.20;;;;;;5016818;28;20642;-83
2022/04/02 06:10:09;;;;;;;1.30;1.20;;;3.70;97.20;;;;;;5028075;28;20244;-82
2022/04/02 06:12:37;;;;;;;2.50;1.20;;;3.70;97.10;;;;;;5028355;28;20953;-82
2022/04/02 06:15:05;;;;;;;2.13;1.40;;;3.70;97.10;;;;;;5028079;28;20205;-82
2022/04/02 06:17:31;;;;;;;1.53;1.10;;;3.70;97.10;;;;;;5026873;28;20224;-82
2022/04/02 06:19:58;;;;;;;1.53;0.97;;;3.80;97.20;;;;;;5027086;28;20287;-83
2022/04/02 06:22:25;;;;;;;1.50;1.20;;;3.80;97.20;;;;;;5027666;28;20643;-80
2022/04/02 06:24:51;;;;;;;1.70;1.60;;;3.80;97.10;;;;;;5027034;28;20266;-82
2022/04/02 06:27:18;;;;;;;1.87;1.77;;;3.90;97.30;;;;;;5026817;28;20713;-83
2022/04/02 06:29:46;;;;;;;1.73;1.20;;;3.90;97.50;;;;;;5046772;28;20211;-82
2022/04/02 06:32:13;;;;;;;1.40;1.30;;;3.90;97.40;;;;;;5047181;28;20216;-82
2022/04/02 06:34:40;;;;;;;1.43;1.33;;;3.80;97.30;;;;;;5043067;28;20209;-81
2022/04/02 06:37:07;;;;;;;1.03;1.00;;;3.90;97.30;;;;;;5015160;28;20220;-81
2022/04/02 06:39:34;;;;;;;9.67;1.93;;;3.90;97.30;;;;;;5013842;28;20268;-79
2022/04/02 06:42:00;;;;;;;1.70;1.27;;;3.90;97.40;;;;;;5027630;28;20213;-85
2022/04/02 06:44:29;;;;;;;1.30;1.20;;;4.00;97.20;;;;;;5026707;28;20204;-82
2022/04/02 06:46:59;;;;;;;0.80;0.80;;;4.00;97.20;;;;;;5026612;28;20229;-78
2022/04/02 06:49:26;;;;;;;2.10;0.97;;;4.10;97.30;;;;;;5026319;28;20205;-80
2022/04/02 06:51:53;;;;;;;1.30;1.03;;;4.10;97.10;;;;;;5025455;28;20205;-80
2022/04/02 06:54:20;;;;;;;2.40;1.67;;;4.20;97.10;;;;;;5025920;28;20217;-80
2022/04/02 06:56:48;;;;;;;1.57;1.07;;;4.20;97.00;;;;;;5026330;28;20213;-80
2022/04/02 06:59:15;;;;;;;1.87;1.20;;;4.30;96.90;;;;;;5026124;28;20316;-80
2022/04/02 07:01:42;;;;;;;1.03;1.00;;;4.30;96.80;;;;;;5026048;28;20271;-80
2022/04/02 07:04:10;;;;;;;1.80;1.10;;;4.40;96.80;;;;;;5026459;28;20200;-80
2022/04/02 07:06:38;;;;;;;1.33;0.90;;;4.50;96.60;;;;;;5026038;28;20993;-80
2022/04/02 07:09:05;;;;;;;0.77;0.77;;;4.50;96.70;;;;;;5026427;28;20219;-80
2022/04/02 07:11:32;;;;;;;2.23;1.30;;;4.50;96.50;;;;;;5026410;28;20307;-80
2022/04/02 07:14:00;;;;;;;1.80;1.10;;;4.60;96.40;;;;;;5025705;28;20220;-80
2022/04/02 07:16:28;;;;;;;0.87;0.87;;;4.60;96.30;;;;;;5026088;28;20197;-80
2022/04/02 07:18:56;;;;;;;1.20;1.07;;;4.60;96.40;;;;;;5032620;28;20274;-80
2022/04/02 07:21:27;;;;;;;2.03;1.30;;;4.70;96.40;;;;;;5029478;28;20200;-80
2022/04/02 07:23:54;;;;;;;1.50;1.03;;;4.80;96.30;;;;;;5028660;28;20586;-81
2022/04/02 07:26:21;;;;;;;1.60;1.00;;;4.80;96.00;;;;;;5026291;28;20673;-80
2022/04/02 07:28:49;;;;;;;3.37;1.20;;;4.90;96.00;;;;;;5026334;28;20259;-81
2022/04/02 07:31:15;;;;;;;0.90;0.90;;;4.90;95.90;;;;;;5025819;28;20205;-80
2022/04/02 07:33:42;;;;;;;2.23;1.47;;;4.90;95.70;;;;;;5026428;28;20209;-80
2022/04/02 07:36:19;;;;;;;4.47;1.67;;;4.90;96.00;;;;;;5026036;28;20200;-79
2022/04/02 07:38:55;;;;;;;1.63;1.33;;;5.00;96.00;;;;;;5029778;28;20266;-79
2022/04/02 07:41:27;;;;;;;1.50;1.13;;;5.10;95.90;;;;;;5025842;28;20680;-80
2022/04/02 07:43:59;;;;;;;1.20;1.10;;;5.10;95.50;;;;;;5025444;28;20217;-81
2022/04/02 07:46:30;;;;;;;1.23;1.13;;;5.00;95.00;;;;;;5025627;28;20208;-80
2022/04/02 07:48:58;;;;;;;0.90;0.90;;;4.90;94.90;;;;;;5025996;28;20204;-80
2022/04/02 07:51:28;;;;;;;0.90;0.80;;;4.90;94.80;;;;;;5026022;28;20208;-81
2022/04/02 07:54:01;;;;;;;1.27;1.17;;;4.90;94.90;;;;;;5025896;28;20205;-81
2022/04/02 07:56:30;;;;;;;1.43;0.90;;;5.00;95.00;;;;;;5026829;28;20346;-81
2022/04/02 07:59:01;;;;;;;1.17;1.00;;;5.10;95.10;;;;;;5026007;28;20715;-80
2022/04/02 08:01:28;;;;;;;0.80;0.80;;;5.00;94.70;;;;;;5025800;28;20306;-80
2022/04/02 08:03:56;;;;;;;1.70;1.30;;;5.10;94.80;;;;;;5022026;28;20630;-80
2022/04/02 08:06:23;;;;;;;1.13;1.00;;;5.10;94.60;;;;;;5029782;28;20259;-80
2022/04/02 08:08:50;;;;;;;2.60;1.60;;;5.20;94.70;;;;;;5029515;28;20255;-79
2022/04/02 08:11:20;;;;;;;1.67;0.93;;;5.10;94.60;;;;;;5023449;28;20271;-80
2022/04/02 08:13:47;;;;;;;1.20;1.10;;;5.20;94.70;;;;;;5030058;28;20289;-80
2022/04/02 08:16:14;;;;;;;0.97;0.90;;;5.10;94.40;;;;;;5030017;28;20201;-80
2022/04/02 08:18:41;;;;;;;2.47;1.20;;;5.20;94.30;;;;;;5042319;28;20475;-80
2022/04/02 08:21:09;;;;;;;1.70;1.30;;;5.30;94.20;;;;;;5036994;28;20225;-80
2022/04/02 08:23:36;;;;;;;2.83;1.10;;;5.40;94.10;;;;;;5031649;28;20213;-81
2022/04/02 08:26:23;;;;;;;1.07;1.07;;;5.40;94.00;;;;;;5031051;28;20244;-80
2022/04/02 08:29:06;;;;;;;2.17;0.90;;;5.50;93.40;;;;;;5030819;28;20205;-80
2022/04/02 08:31:52;;;;;;;0.90;0.90;;;5.50;92.40;;;;;;5031224;28;20263;-82
2022/04/02 08:34:31;;;;;;;2.50;1.00;;;5.50;92.40;;;;;;5031429;28;20247;-80
2022/04/02 08:37:07;;;;;;;8.87;2.50;;;5.50;91.30;;;;;;5030775;28;20667;-79
2022/04/02 08:39:41;;;;;;;0.80;0.80;;;5.40;90.70;;;;;;5031048;28;20266;-80
2022/04/02 08:42:44;;;;;;;3.77;1.17;;;5.40;89.40;;;;;;5030769;28;20193;-80
2022/04/02 08:45:14;;;;;;;0.97;0.80;;;5.50;89.90;;;;;;5010906;28;20226;-80
2022/04/02 08:48:21;;;;;;;0.77;0.77;;;5.50;88.00;;;;;;5011193;28;20232;-79
2022/04/02 08:50:48;;;;;;;0.67;0.63;;;5.60;88.60;;;;;;5012014;28;20307;-80
2022/04/02 08:53:21;;;;;;;0.70;0.67;;;5.80;88.60;;;;;;5022193;28;20707;-82
2022/04/02 08:55:50;;;;;;;1.10;1.00;;;5.90;88.40;;;;;;5010720;28;20190;-80
2022/04/02 08:58:25;;;;;;;1.20;0.77;;;6.00;88.00;;;;;;5011010;28;20237;-80
2022/04/02 09:01:23;;;;;;;2.07;1.03;;;6.10;87.00;;;;;;5010854;28;20603;-81
2022/04/02 09:04:37;;;;;;;1.10;1.00;;;6.10;87.00;;;;;;5019061;28;20205;-80
2022/04/02 09:07:31;;;;;;;1.93;0.80;;;6.20;87.30;;;;;;5030358;28;20193;-80
2022/04/02 09:10:21;;;;;;;2.73;1.00;;;6.30;86.10;;;;;;5030566;28;20213;-80
2022/04/02 09:13:09;;;;;;;8.53;2.63;;;6.40;84.50;;;;;;5029639;28;20563;-79
2022/04/02 09:15:51;;;;;;;1.50;0.90;;;6.50;84.10;;;;;;5030017;28;20285;-79
2022/04/02 09:18:35;;;;;;;0.70;0.70;;;6.60;83.90;;;;;;5045075;28;20213;-79
2022/04/02 09:21:20;;;;;;;17.97;2.43;;;6.60;83.10;;;;;;5030231;28;20208;-79
2022/04/02 09:24:03;;;;;;;0.90;0.90;;;6.70;83.10;;;;;;5029771;28;20240;-79
2022/04/02 09:26:52;;;;;;;1.40;0.80;;;6.80;82.60;;;;;;5029575;28;20251;-79
2022/04/02 09:29:28;;;;;;;1.30;1.03;;;6.90;82.60;;;;;;5030005;28;20209;-80
2022/04/02 09:32:32;;;;;;;3.10;1.00;;;7.10;83.50;;;;;;5029939;28;20648;-79
2022/04/02 09:35:34;;;;;;;2.30;1.00;;;7.20;83.30;;;;;;5029897;28;20201;-80
2022/04/02 09:38:33;;;;;;;0.73;0.70;;;7.20;83.60;;;;;;5029551;28;20630;-80
2022/04/02 09:41:11;;;;;;;1.10;0.80;;;7.10;82.30;;;;;;5029937;28;20219;-80
2022/04/02 09:43:46;;;;;;;1.57;1.10;;;7.00;82.50;;;;;;5029815;28;20215;-79
2022/04/02 09:46:36;;;;;;;1.57;0.90;;;6.90;82.60;;;;;;5029857;28;20262;-79
2022/04/02 09:49:20;;;;;;;0.80;0.80;;;6.90;83.10;;;;;;5029856;28;20200;-80
2022/04/02 09:51:57;;;;;;;2.57;0.80;;;7.00;83.40;;;;;;5029605;28;20193;-80
2022/04/02 09:54:31;;;;;;;3.67;1.10;;;7.00;83.30;;;;;;5026754;28;20876;-79
2022/04/02 09:57:05;;;;;;;4.20;1.10;;;7.10;83.20;;;;;;5009506;28;20202;-79
2022/04/02 09:59:42;;;;;;;0.87;0.73;;;7.10;82.80;;;;;;5009379;28;20700;-80
2022/04/02 10:02:17;;;;;;;0.90;0.90;;;7.20;82.20;;;;;;5020829;28;20243;-79
2022/04/02 10:04:53;;;;;;;1.10;1.00;;;7.20;81.40;;;;;;5029382;28;20659;-80
2022/04/02 10:07:32;;;;;;;1.20;1.10;;;7.20;81.70;;;;;;5029710;28;20596;-79
2022/04/02 10:10:01;;;;;;;0.97;0.97;;;7.10;81.60;;;;;;5029335;28;20204;-79
2022/04/02 10:12:29;;;;;;;1.27;1.00;;;7.20;82.30;;;;;;5028545;28;20204;-79
2022/04/02 10:14:58;;;;;;;37.27;5.17;;;7.30;81.50;;;;;;5048315;28;20345;-79
2022/04/02 10:17:28;;;;;;;1.57;1.00;;;7.30;81.50;;;;;;5049085;28;20204;-79
2022/04/02 10:19:57;;;;;;;1.90;0.83;;;7.30;81.20;;;;;;5042704;28;20243;-79
2022/04/02 10:22:37;;;;;;;8.40;1.30;;;7.40;81.60;;;;;;5028053;28;20217;-79
2022/04/02 10:25:07;;;;;;;8.23;1.67;;;7.60;81.60;;;;;;5019956;28;20287;-79
2022/04/02 10:27:35;;;;;;;5.53;1.20;;;7.80;81.50;;;;;;5028396;28;20220;-80
2022/04/02 10:30:07;;;;;;;0.93;0.93;;;8.00;80.90;;;;;;5028542;28;20682;-79
2022/04/02 10:33:26;;;;;;;2.60;1.20;;;8.00;80.30;;;;;;5029379;28;20203;-80
2022/04/02 10:35:49;;;;;;;1.57;0.87;;;8.00;80.00;;;;;;5028547;28;20714;-79
2022/04/02 10:38:39;;;;;;;2.57;1.20;;;7.90;79.40;;;;;;5028926;28;20242;-79
2022/04/02 10:41:12;;;;;;;3.07;1.23;;;7.90;79.70;;;;;;5028621;28;20259;-79
2022/04/02 10:43:51;;;;;;;2.27;1.00;;;7.80;79.30;;;;;;5029368;28;20642;-79
2022/04/02 10:46:20;;;;;;;7.40;1.57;;;7.80;79.70;;;;;;5028538;28;20196;-79
2022/04/02 10:48:56;;;;;;;8.27;1.50;;;7.80;79.90;;;;;;5028936;28;20224;-79
2022/04/02 10:51:25;;;;;;;1.80;1.00;;;7.90;79.80;;;;;;5028569;28;20216;-78
2022/04/02 10:54:01;;;;;;;6.70;1.20;;;8.00;80.00;;;;;;5025008;28;20608;-79
2022/04/02 10:56:33;;;;;;;1.03;0.70;;;8.00;79.40;;;;;;5028142;28;20218;-79
2022/04/02 10:59:00;;;;;;;1.10;1.10;;;8.20;79.80;;;;;;5028275;28;20225;-79
2022/04/02 11:01:30;;;;;;;1.30;1.20;;;8.30;79.70;;;;;;5028578;28;20239;-79
2022/04/02 11:04:11;;;;;;;9.20;1.40;;;8.40;78.50;;;;;;5028125;28;20715;-80
2022/04/02 11:06:48;;;;;;;1.63;1.30;;;8.40;78.10;;;;;;5028720;28;20199;-81
2022/04/02 11:09:30;;;;;;;32.60;2.97;;;8.40;77.60;;;;;;5033503;28;20208;-81
2022/04/02 11:12:00;;;;;;;9.13;2.23;;;8.30;77.00;;;;;;5048340;28;20192;-80
2022/04/02 11:14:36;;;;;;;3.07;1.10;;;8.40;77.80;;;;;;5048063;28;20235;-82
2022/04/02 11:17:03;;;;;;;0.83;0.83;;;8.40;77.60;;;;;;5034749;28;20205;-81
2022/04/02 11:22:28;;;;;;;15.67;2.43;;;8.50;77.50;;;;;;5027641;28;20674;-80
2022/04/02 11:25:04;;;;;;;2.03;1.33;;;8.60;76.90;;;;;;5022350;28;20231;-81
2022/04/02 11:27:35;;;;;;;3.43;1.17;;;8.50;76.80;;;;;;5028454;28;20201;-81
2022/04/02 11:30:07;;;;;;;0.90;0.77;;;8.40;77.30;;;;;;5027981;28;20193;-81
2022/04/02 11:32:42;;;;;;;3.57;1.23;;;8.30;77.40;;;;;;5028199;28;20656;-81
2022/04/02 11:35:13;;;;;;;0.90;0.90;;;8.20;78.30;;;;;;5028138;28;20196;-79
2022/04/02 11:37:56;;;;;;;3.13;1.80;;;8.20;78.80;;;;;;5028085;28;20208;-80
2022/04/02 11:40:27;;;;;;;1.37;0.93;;;8.10;79.20;;;;;;5032193;28;20825;-79
2022/04/02 11:42:55;;;;;;;52.97;4.63;;;8.00;80.10;;;;;;5032051;28;20208;-80
2022/04/02 11:45:21;;;;;;;1.60;1.23;;;7.90;81.50;;;;;;5032009;28;20282;-79
2022/04/02 11:47:50;;;;;;;1.80;1.13;;;7.70;82.80;;;;;;5031857;28;20263;-79
2022/04/02 11:50:25;;;;;;;5.93;1.30;;;7.60;83.80;;;;;;5032402;28;20207;-80
2022/04/02 11:52:53;;;;;;;4.07;1.10;;;7.60;84.80;;;;;;5026714;28;20301;-79
2022/04/02 11:55:21;;;;;;;1.30;0.93;;;7.60;86.20;;;;;;5012421;28;20237;-80
2022/04/02 11:57:59;;;;;;;0.80;0.80;;;7.70;87.10;;;;;;5011643;28;20209;-82
2022/04/02 12:00:27;;;;;;;19.10;1.40;;;7.70;87.30;;;;;;5012445;28;20267;-82
2022/04/02 12:02:54;;;;;;;7.33;1.83;;;7.80;87.60;;;;;;5031467;28;20676;-79
2022/04/02 12:05:21;;;;;;;2.50;0.73;;;7.90;88.00;;;;;;5031908;28;20215;-82
2022/04/02 12:07:49;;;;;;;5.63;1.10;;;8.00;88.20;;;;;;5031568;28;20244;-81
2022/04/02 12:10:17;;;;;;;1.03;1.00;;;8.00;86.40;;;;;;5031676;28;20213;-80
2022/04/02 12:12:45;;;;;;;1.73;1.10;;;7.90;85.90;;;;;;5031594;28;20212;-80
2022/04/02 12:15:15;;;;;;;1.03;1.03;;;8.00;85.60;;;;;;5031490;28;20221;-80
2022/04/02 12:17:46;;;;;;;1.83;0.90;;;8.10;85.70;;;;;;5038751;28;20270;-80
2022/04/02 12:20:16;;;;;;;0.80;0.80;;;8.10;85.70;;;;;;5050945;28;20301;-81
2022/04/02 12:22:46;;;;;;;1.03;0.90;;;8.00;85.70;;;;;;5047448;28;20212;-81
2022/04/02 12:25:20;;;;;;;3.43;1.00;;;7.80;86.60;;;;;;5031520;28;20211;-84
2022/04/02 12:27:50;;;;;;;4.30;1.20;;;7.60;87.70;;;;;;5030941;28;20677;-82
2022/04/02 12:30:23;;;;;;;6.93;1.60;;;7.50;88.90;;;;;;5031266;28;20291;-82
2022/04/02 12:32:49;;;;;;;1.17;1.07;;;7.40;90.00;;;;;;5030943;28;20564;-81
2022/04/02 12:35:26;;;;;;;1.37;0.90;;;7.20;90.60;;;;;;5031293;28;20208;-81
2022/04/02 12:37:55;;;;;;;1.00;0.90;;;7.20;91.00;;;;;;5031289;28;20212;-81
2022/04/02 12:40:24;;;;;;;2.67;1.80;;;7.10;91.20;;;;;;5031169;28;20229;-80
2022/04/02 12:42:53;;;;;;;1.23;1.03;;;7.10;91.20;;;;;;5030813;28;20244;-80
2022/04/02 12:45:23;;;;;;;0.90;0.90;;;7.10;91.00;;;;;;5030046;28;20271;-79
2022/04/02 12:47:58;;;;;;;2.70;1.43;;;7.00;90.80;;;;;;5030549;28;20225;-82
2022/04/02 12:50:27;;;;;;;0.80;0.80;;;7.00;90.60;;;;;;5030182;28;20212;-80
2022/04/02 12:52:54;;;;;;;1.33;0.90;;;7.10;90.50;;;;;;5027335;28;20212;-79
2022/04/02 12:55:22;;;;;;;0.93;0.73;;;7.30;90.50;;;;;;5030831;28;20262;-80
2022/04/02 12:58:07;;;;;;;0.90;0.90;;;7.40;90.50;;;;;;5030485;28;20274;-80
2022/04/02 13:00:37;;;;;;;0.70;0.70;;;7.60;90.20;;;;;;5030392;28;20254;-80
2022/04/02 13:03:05;;;;;;;1.50;0.90;;;7.70;90.00;;;;;;5046129;28;20219;-79
2022/04/02 13:05:46;;;;;;;2.93;1.20;;;7.90;89.50;;;;;;5050526;28;20246;-79
2022/04/02 13:08:27;;;;;;;2.13;0.90;;;8.10;88.10;;;;;;5048217;28;20566;-80
2022/04/02 13:10:56;;;;;;;0.70;0.70;;;8.10;87.80;;;;;;5030525;28;20259;-80
2022/04/02 13:13:39;;;;;;;5.17;1.20;;;7.90;86.60;;;;;;5030158;28;20205;-80
2022/04/02 13:16:09;;;;;;;5.50;1.13;;;7.80;87.30;;;;;;5030256;28;20199;-80
2022/04/02 13:21:34;;;;;;;7.73;1.03;;;7.50;89.20;;;;;;5030524;28;20228;-80
2022/04/02 13:24:26;;;;;;;0.97;0.93;;;7.30;89.70;;;;;;5030277;28;20259;-79
2022/04/02 13:27:05;;;;;;;0.83;0.83;;;7.10;89.40;;;;;;5030309;28;20311;-79